Pagina principale
METAR-TAF:

METAR-TAF

Aeroporti :

Trevico, Italia

latitudine: 41-03N, longitudine: 015-14E, altezza: 1085 m

Osservazione

Il bollettino è stato emesso 33 minuti fa, alle 18:55 UTC
Vento 9 kt da sud/sud-est
Temperature 12°C
Umidità 50%
Pressione 1018 hPa
Visibilità 10 km o più
Nubi sparse ad un'altezza di 400 ft

METAR: LIRT 231855Z 15009KT 9999 SCT004 12/02 Q1018 RMK SCT MON LIB VAL NIL VIS MIN 9999

Ora: 21:28 (19:28 UTC)


TAF: mancante

Osservazioni e previsioni meteorologiche di più di 4000 aeroporti (messaggi METAR e TAF).

Le stazioni disponibili sono rappresentate dai dischi gialli e rossi sulla carta.

Puntare il mouse per vedere il nome della stazione.

Clicca sopra per visualizzare le osservazioni e previsioni meteorologiche.

Per cambiare la mappa : fare clic sui pulsanti verdi con una croce nera per ingrandire, il pulsante verde con un trattino per diminuire, o sulla freccia verde per le mappe adiacenti.


METAR-TAF: